createdAt,value
2018-04-29T00:02:11.817Z,84.40
2018-04-29T00:04:39.314Z,84.60
2018-04-29T00:07:06.789Z,84.50
2018-04-29T00:09:34.277Z,84.60
2018-04-29T00:12:01.737Z,84.80
2018-04-29T00:14:29.205Z,85.10
2018-04-29T00:16:56.664Z,85.20
2018-04-29T00:19:24.161Z,85.30
2018-04-29T00:21:51.623Z,85.40
2018-04-29T00:24:19.105Z,85.30
2018-04-29T00:26:46.583Z,85.30
2018-04-29T00:29:14.059Z,85.30
2018-04-29T00:31:42.282Z,85.70
2018-04-29T00:34:09.772Z,85.70
2018-04-29T00:36:37.248Z,85.90
2018-04-29T00:39:05.501Z,85.90
2018-04-29T00:41:32.996Z,85.90
2018-04-29T00:44:01.216Z,85.80
2018-04-29T00:46:28.857Z,85.80
2018-04-29T00:48:56.363Z,85.90
2018-04-29T00:51:35.665Z,86.10
2018-04-29T00:54:03.168Z,86.10
2018-04-29T00:56:31.391Z,86.10
2018-04-29T00:58:58.971Z,86.10
2018-04-29T01:01:26.354Z,86.20
2018-04-29T01:03:53.870Z,86.40
2018-04-29T01:06:21.346Z,86.70
2018-04-29T01:08:48.808Z,86.70
2018-04-29T01:11:16.315Z,86.70
2018-04-29T01:13:43.760Z,86.70
2018-04-29T01:16:11.249Z,87.60
2018-04-29T01:18:38.731Z,86.90
2018-04-29T01:21:06.212Z,86.90
2018-04-29T01:23:33.665Z,87.70
2018-04-29T01:26:01.143Z,87.10
2018-04-29T01:28:29.381Z,87.40
2018-04-29T01:30:56.861Z,87.40
2018-04-29T01:33:25.111Z,87.70
2018-04-29T01:35:52.596Z,87.70
2018-04-29T01:38:20.834Z,87.80
2018-04-29T01:40:48.328Z,87.80
2018-04-29T01:43:16.575Z,87.90
2018-04-29T01:45:44.064Z,87.90
2018-04-29T01:48:11.521Z,88.00
2018-04-29T01:50:39.002Z,88.10
2018-04-29T01:53:06.457Z,88.10
2018-04-29T01:55:33.943Z,88.10
2018-04-29T01:58:01.400Z,88.30
2018-04-29T02:00:29.623Z,88.40
2018-04-29T02:02:57.112Z,88.30
2018-04-29T02:05:24.592Z,88.50
2018-04-29T02:07:52.053Z,88.60
2018-04-29T02:10:19.554Z,89.20
2018-04-29T02:12:47.013Z,88.60
2018-04-29T02:15:14.478Z,88.80
2018-04-29T02:17:42.721Z,89.00
2018-04-29T02:20:10.205Z,88.90
2018-04-29T02:22:38.457Z,89.10
2018-04-29T02:25:05.938Z,89.00
2018-04-29T02:27:33.398Z,89.20
2018-04-29T02:30:01.655Z,89.00
2018-04-29T02:32:29.177Z,89.00
2018-04-29T02:34:56.666Z,88.90
2018-04-29T02:37:27.735Z,88.90
2018-04-29T02:39:55.228Z,89.00
2018-04-29T02:42:22.724Z,88.90
2018-04-29T02:44:50.192Z,89.00
2018-04-29T02:47:18.433Z,89.20
2018-04-29T02:49:45.918Z,89.20
2018-04-29T02:52:13.406Z,89.10
2018-04-29T02:54:40.897Z,89.10
2018-04-29T02:57:08.361Z,89.10
2018-04-29T02:59:35.845Z,89.20
2018-04-29T03:02:03.302Z,89.30
2018-04-29T03:04:30.816Z,89.40
2018-04-29T03:06:58.304Z,89.30
2018-04-29T03:09:25.805Z,89.60
2018-04-29T03:11:53.291Z,89.60
2018-04-29T03:14:20.752Z,89.50
2018-04-29T03:16:48.224Z,89.60
2018-04-29T03:19:15.714Z,89.60
2018-04-29T03:21:43.971Z,89.90
2018-04-29T03:24:11.440Z,89.80
2018-04-29T03:26:38.947Z,90.00
2018-04-29T03:29:06.415Z,90.50
2018-04-29T03:31:33.897Z,90.50
2018-04-29T03:34:01.374Z,90.50
2018-04-29T03:36:29.596Z,90.60
2018-04-29T03:38:57.056Z,90.60
2018-04-29T03:41:24.540Z,90.60
2018-04-29T03:43:52.023Z,90.70
2018-04-29T03:46:20.267Z,90.80
2018-04-29T03:48:47.704Z,90.70
2018-04-29T03:51:15.204Z,90.70
2018-04-29T03:53:42.684Z,90.80
2018-04-29T03:56:10.861Z,90.90
2018-04-29T03:58:50.169Z,90.90
2018-04-29T04:01:30.122Z,90.90
2018-04-29T04:03:59.279Z,91.40
2018-04-29T04:06:27.079Z,91.10
2018-04-29T04:08:54.548Z,91.10
2018-04-29T04:11:22.809Z,91.20
2018-04-29T04:13:50.560Z,91.10
2018-04-29T04:16:18.041Z,91.20
2018-04-29T04:18:45.536Z,91.20
2018-04-29T04:21:13.016Z,91.30
2018-04-29T04:23:40.569Z,91.30
2018-04-29T04:26:07.967Z,91.40
2018-04-29T04:28:36.204Z,91.50
2018-04-29T04:31:03.660Z,91.50
2018-04-29T04:33:31.149Z,91.50
2018-04-29T04:35:58.618Z,91.60
2018-04-29T04:38:26.872Z,91.60
2018-04-29T04:40:55.129Z,91.60
2018-04-29T04:43:22.585Z,91.60
2018-04-29T04:45:50.093Z,91.60
2018-04-29T04:48:17.579Z,91.70
2018-04-29T04:50:45.089Z,91.70
2018-04-29T04:53:12.527Z,91.70
2018-04-29T04:55:40.032Z,91.70
2018-04-29T04:58:07.572Z,91.70
2018-04-29T05:00:34.995Z,91.80
2018-04-29T05:03:02.501Z,91.80
2018-04-29T05:05:30.008Z,92.00
2018-04-29T05:07:57.495Z,92.00
2018-04-29T05:10:24.952Z,91.50
2018-04-29T05:12:52.437Z,91.50
2018-04-29T05:15:19.918Z,91.50
2018-04-29T05:17:47.418Z,91.50
2018-04-29T05:20:14.875Z,91.50
2018-04-29T05:22:42.356Z,91.60
2018-04-29T05:25:10.583Z,91.50
2018-04-29T05:27:38.078Z,91.50
2018-04-29T05:30:05.589Z,91.50
2018-04-29T05:32:33.053Z,91.50
2018-04-29T05:35:00.548Z,91.60
2018-04-29T05:37:28.008Z,91.50
2018-04-29T05:39:56.260Z,91.50
2018-04-29T05:42:23.727Z,91.40
2018-04-29T05:44:51.230Z,91.40
2018-04-29T05:47:18.690Z,91.30
2018-04-29T05:49:46.253Z,91.50
2018-04-29T05:52:13.680Z,91.40
2018-04-29T05:54:41.946Z,91.40
2018-04-29T05:57:09.404Z,91.40
2018-04-29T05:59:37.665Z,91.20
2018-04-29T06:02:05.146Z,91.20
2018-04-29T06:04:33.370Z,91.20
2018-04-29T06:07:00.836Z,91.20
2018-04-29T06:09:29.097Z,91.10
2018-04-29T06:11:56.576Z,91.10
2018-04-29T06:14:24.333Z,91.00
2018-04-29T06:16:51.845Z,91.20
2018-04-29T06:19:19.300Z,90.90
2018-04-29T06:21:46.772Z,90.60
2018-04-29T06:24:14.274Z,90.50
2018-04-29T06:26:41.762Z,90.20
2018-04-29T06:29:10.012Z,90.00
2018-04-29T06:31:37.466Z,90.00
2018-04-29T06:34:04.955Z,89.40
2018-04-29T06:36:32.430Z,88.70
2018-04-29T06:38:59.915Z,88.10
2018-04-29T06:41:27.396Z,87.70
2018-04-29T06:43:54.884Z,86.90
2018-04-29T06:46:22.403Z,86.20
2018-04-29T06:48:49.861Z,85.30
2018-04-29T06:51:17.336Z,85.00
2018-04-29T06:53:44.795Z,84.50
2018-04-29T06:56:13.048Z,84.30
2018-04-29T06:58:40.568Z,84.00
2018-04-29T07:01:08.042Z,83.70
2018-04-29T07:03:35.535Z,83.00
2018-04-29T07:06:03.008Z,82.70
2018-04-29T07:08:31.252Z,81.70
2018-04-29T07:10:58.713Z,81.70
2018-04-29T07:13:26.173Z,80.90
2018-04-29T07:15:53.652Z,81.00
2018-04-29T07:18:21.148Z,80.50
2018-04-29T07:20:48.640Z,80.10
2018-04-29T07:23:16.096Z,79.60
2018-04-29T07:25:43.584Z,79.10
2018-04-29T07:28:11.832Z,79.80
2018-04-29T07:30:39.287Z,79.80
2018-04-29T07:33:06.766Z,79.10
2018-04-29T07:35:34.985Z,78.20
2018-04-29T07:38:02.491Z,78.20
2018-04-29T07:40:29.964Z,78.00
2018-04-29T07:42:57.460Z,78.80
2018-04-29T07:45:24.927Z,77.90
2018-04-29T07:47:52.384Z,77.20
2018-04-29T07:50:19.871Z,76.40
2018-04-29T07:52:47.326Z,75.80
2018-04-29T07:55:14.817Z,75.80
2018-04-29T07:57:43.037Z,75.20
2018-04-29T08:00:10.516Z,75.20
2018-04-29T08:02:37.990Z,74.80
2018-04-29T08:05:06.254Z,73.90
2018-04-29T08:07:33.738Z,74.60
2018-04-29T08:10:02.000Z,72.60
2018-04-29T08:12:30.227Z,71.60
2018-04-29T08:14:57.724Z,71.30
2018-04-29T08:17:25.205Z,70.80
2018-04-29T08:19:53.429Z,70.00
2018-04-29T08:22:20.916Z,70.10
2018-04-29T08:24:49.153Z,69.30
2018-04-29T08:27:16.644Z,69.20
2018-04-29T08:29:44.116Z,69.20
2018-04-29T08:32:12.446Z,67.10
2018-04-29T08:34:39.941Z,67.10
2018-04-29T08:37:07.405Z,65.90
2018-04-29T08:39:34.910Z,64.70
2018-04-29T08:42:02.369Z,64.60
2018-04-29T08:44:29.847Z,63.50
2018-04-29T08:46:57.346Z,64.00
2018-04-29T08:49:25.613Z,62.90
2018-04-29T08:51:53.077Z,62.90
2018-04-29T08:54:21.329Z,62.00
2018-04-29T08:56:48.820Z,62.00
2018-04-29T08:59:17.071Z,60.70
2018-04-29T09:01:44.566Z,60.60
2018-04-29T09:04:12.042Z,60.00
2018-04-29T09:06:39.503Z,60.90
2018-04-29T09:09:07.017Z,59.70
2018-04-29T09:11:35.251Z,58.10
2018-04-29T09:14:02.716Z,58.00
2018-04-29T09:16:30.208Z,57.30
2018-04-29T09:18:57.676Z,55.90
2018-04-29T09:21:25.166Z,56.00
2018-04-29T09:23:52.703Z,56.30
2018-04-29T09:26:20.174Z,55.80
2018-04-29T09:28:47.675Z,56.40
2018-04-29T09:31:15.152Z,56.60
2018-04-29T09:33:43.396Z,54.60
2018-04-29T09:36:10.858Z,54.50
2018-04-29T09:38:38.348Z,54.30
2018-04-29T09:41:05.904Z,53.00
2018-04-29T09:43:33.378Z,51.80
2018-04-29T09:46:00.841Z,51.40
2018-04-29T09:48:28.300Z,49.90
2018-04-29T09:50:55.786Z,49.70
2018-04-29T09:53:23.243Z,49.60
2018-04-29T09:55:50.748Z,47.60
2018-04-29T09:58:18.217Z,48.30
2018-04-29T10:00:50.520Z,47.70
2018-04-29T10:03:19.952Z,46.50
2018-04-29T10:05:47.428Z,45.70
2018-04-29T10:08:15.668Z,47.50
2018-04-29T10:10:43.165Z,47.40
2018-04-29T10:13:10.628Z,48.10
2018-04-29T10:15:38.129Z,48.80
2018-04-29T10:18:05.635Z,48.60
2018-04-29T10:20:33.917Z,49.60
2018-04-29T10:23:02.171Z,49.10
2018-04-29T10:25:29.632Z,49.00
2018-04-29T10:27:57.882Z,48.40
2018-04-29T10:30:25.356Z,48.40
2018-04-29T10:32:52.910Z,48.00
2018-04-29T10:35:20.317Z,47.40
2018-04-29T10:37:47.808Z,48.00
2018-04-29T10:40:15.265Z,48.70
2018-04-29T10:42:42.760Z,48.70
2018-04-29T10:45:11.000Z,48.80
2018-04-29T10:47:38.469Z,48.80
2018-04-29T10:50:05.968Z,47.70
2018-04-29T10:52:33.492Z,48.20
2018-04-29T10:55:00.907Z,47.10
2018-04-29T10:57:29.309Z,47.20
2018-04-29T10:59:56.784Z,46.30
2018-04-29T11:02:24.260Z,46.40
2018-04-29T11:04:51.735Z,46.60
2018-04-29T11:07:19.240Z,47.30
2018-04-29T11:09:46.748Z,46.30
2018-04-29T11:12:14.204Z,45.90
2018-04-29T11:14:41.707Z,44.90
2018-04-29T11:17:09.172Z,44.90
2018-04-29T11:19:36.660Z,45.40
2018-04-29T11:22:04.163Z,45.10
2018-04-29T11:24:32.389Z,46.20
2018-04-29T11:26:59.845Z,46.20
2018-04-29T11:29:27.365Z,45.40
2018-04-29T11:31:54.808Z,45.20
2018-04-29T11:34:22.257Z,45.20
2018-04-29T11:36:49.770Z,45.20
2018-04-29T11:39:18.013Z,45.80
2018-04-29T11:41:45.509Z,45.60
2018-04-29T11:44:12.992Z,45.80
2018-04-29T11:46:40.454Z,46.90
2018-04-29T11:49:07.924Z,47.70
2018-04-29T11:51:35.400Z,47.70
2018-04-29T11:54:02.876Z,47.70
2018-04-29T11:56:30.343Z,47.70
2018-04-29T11:58:57.847Z,47.70
2018-04-29T12:01:25.308Z,48.20
2018-04-29T12:03:52.760Z,48.20
2018-04-29T12:06:20.261Z,48.70
2018-04-29T12:08:48.499Z,48.60
2018-04-29T12:11:16.012Z,48.60
2018-04-29T12:13:43.540Z,49.00
2018-04-29T12:16:11.017Z,49.40
2018-04-29T12:18:39.293Z,50.70
2018-04-29T12:21:06.763Z,50.50
2018-04-29T12:23:34.261Z,50.60
2018-04-29T12:26:01.867Z,50.50
2018-04-29T12:28:29.335Z,50.70
2018-04-29T12:30:57.580Z,51.60
2018-04-29T12:33:25.069Z,51.40
2018-04-29T12:35:52.556Z,51.30
2018-04-29T12:38:20.025Z,52.10
2018-04-29T12:40:47.505Z,52.30
2018-04-29T12:43:14.992Z,52.30
2018-04-29T12:45:42.485Z,52.90
2018-04-29T12:48:10.825Z,53.40
2018-04-29T12:50:38.279Z,53.80
2018-04-29T12:53:06.667Z,53.90
2018-04-29T12:55:34.123Z,54.60
2018-04-29T12:58:02.372Z,54.10
2018-04-29T13:00:29.869Z,54.00
2018-04-29T13:02:58.276Z,52.10
2018-04-29T13:05:25.879Z,52.10
2018-04-29T13:07:53.360Z,51.20
2018-04-29T13:10:20.825Z,50.50
2018-04-29T13:12:49.057Z,51.10
2018-04-29T13:15:16.576Z,51.00
2018-04-29T13:17:44.056Z,51.10
2018-04-29T13:20:11.534Z,51.20
2018-04-29T13:22:38.988Z,51.50
2018-04-29T13:25:06.490Z,52.50
2018-04-29T13:27:34.907Z,52.60
2018-04-29T13:30:02.451Z,52.60
2018-04-29T13:32:29.901Z,52.00
2018-04-29T13:34:57.356Z,51.80
2018-04-29T13:37:24.847Z,51.90
2018-04-29T13:39:52.312Z,51.70
2018-04-29T13:42:20.029Z,52.10
2018-04-29T13:44:47.439Z,52.50
2018-04-29T13:47:14.900Z,53.20
2018-04-29T13:49:42.351Z,53.60
2018-04-29T13:52:09.875Z,53.70
2018-04-29T13:54:37.368Z,53.70
2018-04-29T13:57:04.829Z,53.40
2018-04-29T13:59:32.304Z,53.20
2018-04-29T14:01:59.803Z,52.60
2018-04-29T14:04:27.277Z,52.60
2018-04-29T14:06:54.727Z,53.40
2018-04-29T14:09:22.290Z,53.80
2018-04-29T14:11:49.753Z,53.30
2018-04-29T14:14:17.292Z,53.20
2018-04-29T14:16:44.773Z,52.30
2018-04-29T14:19:12.232Z,51.30
2018-04-29T14:21:39.740Z,50.20
2018-04-29T14:24:07.250Z,49.60
2018-04-29T14:26:34.757Z,49.60
2018-04-29T14:29:02.260Z,49.80
2018-04-29T14:31:30.492Z,50.70
2018-04-29T14:33:57.999Z,50.60
2018-04-29T14:36:25.459Z,50.90
2018-04-29T14:38:52.920Z,51.00
2018-04-29T14:41:20.418Z,51.20
2018-04-29T14:43:48.672Z,52.10
2018-04-29T14:46:16.152Z,52.10
2018-04-29T14:48:43.612Z,51.90
2018-04-29T14:51:11.093Z,51.80
2018-04-29T14:53:38.568Z,52.30
2018-04-29T14:56:06.147Z,52.60
2018-04-29T14:58:33.496Z,52.30
2018-04-29T15:01:00.990Z,53.20
2018-04-29T15:03:28.460Z,53.30
2018-04-29T15:05:55.923Z,53.30
2018-04-29T15:08:23.402Z,53.70
2018-04-29T15:10:50.877Z,54.00
2018-04-29T15:13:18.720Z,54.40
2018-04-29T15:15:46.199Z,54.90
2018-04-29T15:18:25.401Z,55.00
2018-04-29T15:20:52.896Z,55.40
2018-04-29T15:23:20.356Z,55.80
2018-04-29T15:25:47.894Z,56.50
2018-04-29T15:28:15.325Z,56.90
2018-04-29T15:30:42.811Z,56.90
2018-04-29T15:33:10.261Z,57.30
2018-04-29T15:35:37.756Z,57.50
2018-04-29T15:38:05.213Z,57.60
2018-04-29T15:40:32.673Z,57.50
2018-04-29T15:43:00.159Z,57.80
2018-04-29T15:45:27.672Z,57.90
2018-04-29T15:47:55.248Z,57.90
2018-04-29T15:50:22.703Z,58.00
2018-04-29T15:52:50.168Z,58.60
2018-04-29T15:55:18.456Z,57.80
2018-04-29T15:57:46.703Z,57.70
2018-04-29T16:00:14.272Z,57.60
2018-04-29T16:02:41.875Z,57.70
2018-04-29T16:05:09.343Z,57.80
2018-04-29T16:07:36.820Z,57.80
2018-04-29T16:10:04.308Z,58.00
2018-04-29T16:12:31.766Z,58.60
2018-04-29T16:14:59.272Z,58.40
2018-04-29T16:17:26.927Z,58.40
2018-04-29T16:19:54.407Z,58.40
2018-04-29T16:22:22.160Z,58.30
2018-04-29T16:24:49.647Z,58.40
2018-04-29T16:27:17.111Z,58.40
2018-04-29T16:29:44.596Z,58.10
2018-04-29T16:32:12.075Z,58.10
2018-04-29T16:34:39.532Z,58.40
2018-04-29T16:37:07.011Z,58.40
2018-04-29T16:39:34.472Z,58.50
2018-04-29T16:42:01.955Z,58.60
2018-04-29T16:44:29.446Z,58.80
2018-04-29T16:46:57.701Z,59.30
2018-04-29T16:49:25.939Z,58.90
2018-04-29T16:51:53.423Z,58.90
2018-04-29T16:54:21.037Z,59.30
2018-04-29T16:56:48.504Z,59.40
2018-04-29T16:59:16.007Z,59.60
2018-04-29T17:01:43.477Z,59.60
2018-04-29T17:04:10.984Z,59.70
2018-04-29T17:06:38.472Z,59.30
2018-04-29T17:09:05.985Z,59.20
2018-04-29T17:11:33.491Z,59.40
2018-04-29T17:14:01.313Z,59.70
2018-04-29T17:16:28.764Z,60.10
2018-04-29T17:18:56.256Z,60.10
2018-04-29T17:21:23.748Z,60.30
2018-04-29T17:23:51.256Z,60.60
2018-04-29T17:26:18.758Z,60.50
2018-04-29T17:28:47.007Z,61.20
2018-04-29T17:31:14.468Z,61.20
2018-04-29T17:33:41.948Z,61.30
2018-04-29T17:36:11.178Z,61.70
2018-04-29T17:38:38.646Z,61.80
2018-04-29T17:41:06.160Z,61.80
2018-04-29T17:43:34.430Z,62.50
2018-04-29T17:46:02.707Z,62.70
2018-04-29T17:48:30.932Z,62.90
2018-04-29T17:50:58.404Z,62.90
2018-04-29T17:53:25.902Z,63.50
2018-04-29T17:55:54.175Z,64.00
2018-04-29T17:58:22.416Z,64.40
2018-04-29T18:00:49.882Z,64.40
2018-04-29T18:03:17.375Z,64.40
2018-04-29T18:05:45.603Z,64.80
2018-04-29T18:08:13.105Z,64.80
2018-04-29T18:10:41.353Z,65.20
2018-04-29T18:13:09.196Z,65.20
2018-04-29T18:15:36.664Z,65.60
2018-04-29T18:18:04.162Z,65.80
2018-04-29T18:20:32.420Z,66.30
2018-04-29T18:23:00.668Z,66.90
2018-04-29T18:25:28.124Z,66.40
2018-04-29T18:27:55.620Z,66.60
2018-04-29T18:30:23.883Z,67.00
2018-04-29T18:32:51.388Z,67.00
2018-04-29T18:35:18.845Z,67.20
2018-04-29T18:37:46.336Z,67.20
2018-04-29T18:40:13.808Z,67.40
2018-04-29T18:42:41.304Z,67.80
2018-04-29T18:45:08.764Z,67.80
2018-04-29T18:47:36.225Z,67.90
2018-04-29T18:50:03.705Z,68.10
2018-04-29T18:52:31.172Z,68.20
2018-04-29T18:54:58.664Z,68.30
2018-04-29T18:57:26.124Z,69.40
2018-04-29T18:59:54.377Z,69.00
2018-04-29T19:02:21.848Z,69.70
2018-04-29T19:04:49.353Z,69.00
2018-04-29T19:07:17.550Z,69.40
2018-04-29T19:09:45.061Z,69.40
2018-04-29T19:12:13.340Z,69.80
2018-04-29T19:14:41.605Z,69.80
2018-04-29T19:17:09.072Z,69.70
2018-04-29T19:19:36.558Z,69.80
2018-04-29T19:22:04.020Z,69.70
2018-04-29T19:24:31.505Z,69.70
2018-04-29T19:26:59.838Z,70.00
2018-04-29T19:29:27.309Z,70.00
2018-04-29T19:31:54.791Z,70.20
2018-04-29T19:34:22.273Z,70.20
2018-04-29T19:36:50.489Z,70.50
2018-04-29T19:39:17.988Z,70.50
2018-04-29T19:41:45.456Z,70.70
2018-04-29T19:44:12.951Z,70.80
2018-04-29T19:46:40.479Z,70.90
2018-04-29T19:49:07.953Z,71.30
2018-04-29T19:51:35.433Z,71.30
2018-04-29T19:54:02.889Z,71.70
2018-04-29T19:56:30.383Z,72.00
2018-04-29T19:58:57.853Z,72.30
2018-04-29T20:01:25.343Z,72.50
2018-04-29T20:03:52.800Z,72.40
2018-04-29T20:06:20.317Z,72.70
2018-04-29T20:08:47.803Z,73.40
2018-04-29T20:11:15.272Z,73.40
2018-04-29T20:13:42.808Z,73.60
2018-04-29T20:16:10.303Z,73.80
2018-04-29T20:18:37.771Z,73.70
2018-04-29T20:21:05.279Z,73.90
2018-04-29T20:23:32.785Z,74.30
2018-04-29T20:26:00.291Z,74.40
2018-04-29T20:28:28.625Z,74.50
2018-04-29T20:30:56.122Z,74.60
2018-04-29T20:33:23.608Z,75.00
2018-04-29T20:35:51.832Z,75.10
2018-04-29T20:38:19.315Z,75.10
2018-04-29T20:40:46.771Z,75.40
2018-04-29T20:43:14.280Z,75.40
2018-04-29T20:45:41.749Z,75.60
2018-04-29T20:48:09.214Z,75.90
2018-04-29T20:50:36.700Z,76.20
2018-04-29T20:53:04.182Z,76.20
2018-04-29T20:55:32.436Z,76.40
2018-04-29T20:57:59.895Z,76.40
2018-04-29T21:00:27.371Z,76.80
2018-04-29T21:02:54.829Z,76.90
2018-04-29T21:05:23.109Z,77.00
2018-04-29T21:07:50.573Z,77.30
2018-04-29T21:10:18.052Z,77.30
2018-04-29T21:12:45.515Z,77.70
2018-04-29T21:15:13.007Z,78.10
2018-04-29T21:17:40.520Z,78.50
2018-04-29T21:20:07.990Z,78.40
2018-04-29T21:22:35.464Z,78.90
2018-04-29T21:25:03.716Z,79.30
2018-04-29T21:27:31.172Z,79.30
2018-04-29T21:29:58.628Z,79.10
2018-04-29T21:32:26.104Z,79.40
2018-04-29T21:34:53.597Z,79.30
2018-04-29T21:37:21.817Z,79.70
2018-04-29T21:39:49.265Z,79.70
2018-04-29T21:42:16.788Z,79.80
2018-04-29T21:44:45.015Z,80.30
2018-04-29T21:47:12.528Z,80.30
2018-04-29T21:49:39.992Z,80.40
2018-04-29T21:52:07.494Z,80.60
2018-04-29T21:54:34.997Z,80.90
2018-04-29T21:57:02.465Z,80.90
2018-04-29T21:59:29.964Z,81.20
2018-04-29T22:01:57.432Z,81.00
2018-04-29T22:04:24.932Z,81.30
2018-04-29T22:06:53.179Z,81.80
2018-04-29T22:09:20.632Z,81.70
2018-04-29T22:11:48.131Z,82.20
2018-04-29T22:14:15.615Z,82.30
2018-04-29T22:16:43.088Z,82.60
2018-04-29T22:19:10.573Z,82.60
2018-04-29T22:21:38.088Z,82.60
2018-04-29T22:24:05.564Z,82.60
2018-04-29T22:26:33.016Z,82.60
2018-04-29T22:29:00.485Z,82.60
2018-04-29T22:31:28.011Z,82.90
2018-04-29T22:33:55.488Z,82.90
2018-04-29T22:36:23.751Z,83.10
2018-04-29T22:38:51.221Z,83.00
2018-04-29T22:41:18.688Z,83.20
2018-04-29T22:43:46.948Z,83.40
2018-04-29T22:46:14.438Z,83.30
2018-04-29T22:48:41.930Z,83.30
2018-04-29T22:51:09.399Z,83.30
2018-04-29T22:53:36.890Z,84.10
2018-04-29T22:56:04.343Z,83.60
2018-04-29T22:58:31.808Z,83.60
2018-04-29T23:00:59.275Z,83.70
2018-04-29T23:03:26.732Z,83.70
2018-04-29T23:05:54.223Z,83.70
2018-04-29T23:08:21.680Z,83.80
2018-04-29T23:10:49.935Z,83.90
2018-04-29T23:13:17.388Z,83.90
2018-04-29T23:15:44.885Z,84.00
2018-04-29T23:18:12.352Z,84.10
2018-04-29T23:20:39.823Z,84.10
2018-04-29T23:23:07.317Z,84.10
2018-04-29T23:25:34.817Z,84.20
2018-04-29T23:28:02.301Z,84.10
2018-04-29T23:30:29.780Z,84.10
2018-04-29T23:32:57.250Z,84.20
2018-04-29T23:35:24.795Z,84.20
2018-04-29T23:37:52.228Z,84.30
2018-04-29T23:40:20.605Z,84.50
2018-04-29T23:42:48.080Z,84.50
2018-04-29T23:45:15.561Z,84.60
2018-04-29T23:47:43.043Z,84.60
2018-04-29T23:50:11.279Z,84.90
2018-04-29T23:52:38.737Z,84.90
2018-04-29T23:55:06.234Z,84.80
2018-04-29T23:57:35.378Z,84.80
